createdAt,value
2019-01-24T00:01:36.903Z,47.15
2019-01-24T00:04:07.727Z,46.90
2019-01-24T00:06:38.585Z,46.20
2019-01-24T00:09:10.380Z,46.60
2019-01-24T00:11:41.224Z,47.38
2019-01-24T00:14:12.278Z,47.13
2019-01-24T00:16:43.298Z,47.03
2019-01-24T00:19:14.160Z,46.92
2019-01-24T00:21:45.167Z,47.23
2019-01-24T00:24:16.069Z,47.30
2019-01-24T00:26:46.802Z,46.98
2019-01-24T00:29:18.164Z,47.20
2019-01-24T00:31:49.004Z,47.93
2019-01-24T00:34:23.289Z,47.08
2019-01-24T00:36:52.753Z,48.30
2019-01-24T00:39:23.891Z,47.83
2019-01-24T00:41:54.944Z,47.95
2019-01-24T00:44:25.873Z,48.30
2019-01-24T00:46:56.755Z,49.13
2019-01-24T00:49:27.600Z,47.23
2019-01-24T00:51:58.447Z,47.63
2019-01-24T00:54:29.650Z,46.33
2019-01-24T00:57:00.388Z,48.10
2019-01-24T00:59:31.155Z,47.55
2019-01-24T01:02:01.947Z,48.35
2019-01-24T01:04:33.102Z,48.17
2019-01-24T01:07:04.463Z,46.30
2019-01-24T01:09:35.703Z,47.58
2019-01-24T01:12:07.190Z,46.88
2019-01-24T01:14:38.123Z,45.78
2019-01-24T01:17:09.326Z,46.10
2019-01-24T01:19:40.518Z,44.90
2019-01-24T01:22:11.270Z,45.28
2019-01-24T01:24:42.142Z,44.88
2019-01-24T01:27:13.572Z,46.18
2019-01-24T01:29:45.907Z,43.60
2019-01-24T01:32:16.648Z,43.48
2019-01-24T01:34:47.652Z,43.35
2019-01-24T01:37:19.136Z,43.87
2019-01-24T01:39:50.355Z,43.00
2019-01-24T01:42:21.147Z,42.78
2019-01-24T01:44:51.978Z,42.43
2019-01-24T01:47:23.190Z,41.45
2019-01-24T01:49:54.336Z,41.88
2019-01-24T01:52:25.086Z,40.80
2019-01-24T01:54:56.534Z,42.08
2019-01-24T01:57:27.914Z,42.43
2019-01-24T01:59:58.650Z,41.48
2019-01-24T02:02:29.395Z,41.23
2019-01-24T02:05:01.076Z,42.58
2019-01-24T02:07:31.905Z,42.73
2019-01-24T02:10:03.398Z,44.53
2019-01-24T02:12:34.202Z,43.23
2019-01-24T02:15:06.478Z,44.18
2019-01-24T02:17:40.561Z,44.60
2019-01-24T02:20:17.519Z,44.25
2019-01-24T02:22:48.754Z,45.05
2019-01-24T02:25:19.923Z,44.73
2019-01-24T02:27:50.697Z,45.78
2019-01-24T02:30:26.957Z,45.95
2019-01-24T02:32:58.198Z,46.10
2019-01-24T02:35:28.978Z,44.33
2019-01-24T02:37:59.696Z,43.83
2019-01-24T02:40:30.731Z,43.30
2019-01-24T02:43:01.520Z,43.15
2019-01-24T02:45:32.635Z,44.18
2019-01-24T02:48:04.001Z,44.38
2019-01-24T02:50:35.092Z,43.02
2019-01-24T02:53:05.893Z,43.25
2019-01-24T02:55:36.835Z,42.67
2019-01-24T02:58:08.028Z,43.42
2019-01-24T03:00:38.855Z,43.20
2019-01-24T03:03:09.965Z,42.15
2019-01-24T03:05:41.100Z,42.30
2019-01-24T03:08:12.184Z,42.05
2019-01-24T03:10:43.098Z,42.73
2019-01-24T03:13:14.139Z,43.08
2019-01-24T03:15:45.022Z,44.03
2019-01-24T03:18:16.063Z,42.80
2019-01-24T03:20:46.791Z,43.10
2019-01-24T03:23:17.613Z,43.13
2019-01-24T03:25:48.774Z,43.73
2019-01-24T03:28:19.532Z,43.90
2019-01-24T03:30:50.522Z,45.70
2019-01-24T03:33:21.582Z,47.17
2019-01-24T03:35:53.448Z,47.08
2019-01-24T03:38:24.418Z,48.13
2019-01-24T03:40:55.724Z,47.70
2019-01-24T03:43:26.513Z,47.95
2019-01-24T03:45:57.266Z,46.25
2019-01-24T03:48:28.262Z,47.77
2019-01-24T03:50:59.153Z,47.20
2019-01-24T03:53:29.952Z,47.93
2019-01-24T03:56:00.755Z,47.73
2019-01-24T03:58:31.892Z,45.92
2019-01-24T04:01:03.475Z,47.10
2019-01-24T04:03:35.033Z,47.08
2019-01-24T04:06:05.996Z,47.35
2019-01-24T04:08:36.735Z,46.80
2019-01-24T04:11:07.921Z,48.15
2019-01-24T04:13:38.764Z,47.05
2019-01-24T04:16:09.771Z,46.75
2019-01-24T04:18:40.764Z,47.35
2019-01-24T04:21:11.819Z,46.73
2019-01-24T04:23:42.982Z,47.85
2019-01-24T04:26:13.775Z,47.07
2019-01-24T04:28:44.852Z,46.70
2019-01-24T04:31:16.176Z,47.55
2019-01-24T04:33:46.918Z,47.25
2019-01-24T04:36:17.733Z,47.78
2019-01-24T04:38:48.818Z,46.37
2019-01-24T04:41:19.710Z,46.55
2019-01-24T04:43:50.431Z,48.08
2019-01-24T04:46:21.308Z,47.08
2019-01-24T04:48:52.352Z,47.40
2019-01-24T04:51:23.117Z,47.20
2019-01-24T04:53:53.891Z,48.10
2019-01-24T04:56:24.828Z,47.67
2019-01-24T04:58:55.904Z,48.35
2019-01-24T05:01:26.688Z,47.88
2019-01-24T05:03:57.483Z,48.00
2019-01-24T05:06:28.687Z,46.75
2019-01-24T05:08:59.490Z,47.20
2019-01-24T05:11:30.732Z,49.05
2019-01-24T05:14:01.837Z,49.25
2019-01-24T05:16:32.595Z,48.13
2019-01-24T05:19:03.861Z,49.10
2019-01-24T05:21:34.600Z,50.40
2019-01-24T05:24:05.794Z,49.35
2019-01-24T05:26:36.565Z,49.98
2019-01-24T05:29:07.678Z,48.83
2019-01-24T05:31:38.520Z,48.85
2019-01-24T05:34:09.444Z,50.00
2019-01-24T05:36:40.226Z,48.78
2019-01-24T05:39:11.322Z,50.40
2019-01-24T05:41:42.439Z,49.88
2019-01-24T05:44:13.648Z,50.45
2019-01-24T05:46:44.527Z,49.03
2019-01-24T05:49:15.391Z,51.30
2019-01-24T05:51:46.328Z,51.13
2019-01-24T05:54:17.086Z,49.80
2019-01-24T05:56:47.844Z,48.08
2019-01-24T05:59:18.662Z,49.85
2019-01-24T06:01:50.419Z,50.10
2019-01-24T06:04:21.527Z,48.92
2019-01-24T06:06:52.275Z,49.42
2019-01-24T06:09:23.110Z,48.98
2019-01-24T06:11:54.279Z,48.60
2019-01-24T06:14:25.853Z,48.85
2019-01-24T06:16:56.758Z,49.80
2019-01-24T06:19:27.564Z,48.98
2019-01-24T06:21:58.421Z,49.18
2019-01-24T06:24:29.185Z,49.80
2019-01-24T06:27:00.124Z,49.98
2019-01-24T06:29:31.840Z,50.67
2019-01-24T06:32:02.640Z,50.75
2019-01-24T06:34:33.600Z,49.38
2019-01-24T06:37:04.494Z,49.63
2019-01-24T06:39:35.334Z,50.12
2019-01-24T06:42:06.102Z,49.90
2019-01-24T06:44:37.192Z,49.15
2019-01-24T06:47:08.307Z,50.50
2019-01-24T06:49:39.390Z,50.45
2019-01-24T06:52:10.443Z,50.17
2019-01-24T06:54:41.167Z,49.93
2019-01-24T06:57:12.608Z,50.55
2019-01-24T06:59:43.375Z,50.63
2019-01-24T07:02:15.247Z,48.75
2019-01-24T07:04:46.179Z,50.55
2019-01-24T07:07:16.931Z,49.15
2019-01-24T07:09:48.025Z,50.08
2019-01-24T07:12:18.790Z,50.10
2019-01-24T07:14:49.664Z,49.35
2019-01-24T07:17:20.441Z,47.88
2019-01-24T07:19:51.555Z,49.58
2019-01-24T07:22:22.303Z,50.12
2019-01-24T07:24:53.438Z,49.75
2019-01-24T07:27:24.293Z,49.53
2019-01-24T07:29:56.467Z,50.03
2019-01-24T07:32:28.318Z,50.67
2019-01-24T07:34:59.130Z,50.03
2019-01-24T07:37:29.903Z,50.98
2019-01-24T07:40:00.990Z,49.93
2019-01-24T07:42:31.767Z,50.50
2019-01-24T07:45:02.660Z,50.12
2019-01-24T07:47:33.874Z,49.75
2019-01-24T07:50:05.541Z,50.37
2019-01-24T07:52:36.323Z,51.00
2019-01-24T07:55:07.860Z,49.53
2019-01-24T07:57:38.854Z,49.15
2019-01-24T08:00:16.870Z,50.30
2019-01-24T08:02:47.716Z,48.65
2019-01-24T08:05:18.760Z,48.25
2019-01-24T08:07:49.976Z,48.45
2019-01-24T08:10:21.179Z,49.63
2019-01-24T08:12:52.045Z,47.80
2019-01-24T08:15:22.958Z,47.65
2019-01-24T08:17:54.441Z,48.78
2019-01-24T08:20:26.432Z,47.90
2019-01-24T08:22:57.301Z,50.52
2019-01-24T08:25:28.462Z,48.85
2019-01-24T08:27:59.309Z,49.40
2019-01-24T08:30:31.898Z,49.48
2019-01-24T08:33:03.023Z,49.33
2019-01-24T08:35:33.870Z,50.13
2019-01-24T08:38:05.358Z,48.90
2019-01-24T08:40:36.159Z,49.50
2019-01-24T08:43:07.300Z,49.77
2019-01-24T08:45:38.169Z,50.73
2019-01-24T08:48:09.109Z,49.85
2019-01-24T08:50:39.931Z,50.23
2019-01-24T08:53:10.758Z,49.55
2019-01-24T08:55:43.353Z,52.67
2019-01-24T08:58:14.529Z,53.63
2019-01-24T09:00:45.352Z,58.48
2019-01-24T09:03:16.471Z,58.80
2019-01-24T09:05:47.613Z,60.92
2019-01-24T09:08:18.502Z,62.05
2019-01-24T09:10:49.537Z,61.15
2019-01-24T09:13:20.775Z,60.17
2019-01-24T09:15:51.580Z,60.90
2019-01-24T09:18:22.724Z,60.25
2019-01-24T09:20:53.455Z,59.25
2019-01-24T09:23:24.223Z,55.15
2019-01-24T09:25:55.290Z,55.95
2019-01-24T09:28:26.116Z,56.75
2019-01-24T09:30:56.900Z,56.95
2019-01-24T09:33:27.686Z,55.00
2019-01-24T09:35:58.508Z,56.35
2019-01-24T09:38:29.289Z,56.90
2019-01-24T09:41:00.124Z,56.90
2019-01-24T09:43:31.087Z,56.63
2019-01-24T09:46:01.900Z,57.67
2019-01-24T09:48:33.096Z,57.10
2019-01-24T09:51:03.873Z,56.63
2019-01-24T09:53:34.669Z,59.10
2019-01-24T09:56:05.876Z,59.88
2019-01-24T09:58:36.675Z,57.70
2019-01-24T10:01:07.538Z,58.70
2019-01-24T10:03:38.466Z,55.37
2019-01-24T10:06:19.790Z,56.28
2019-01-24T10:08:50.521Z,56.75
2019-01-24T10:11:23.540Z,57.17
2019-01-24T10:13:54.520Z,56.48
2019-01-24T10:16:25.664Z,56.05
2019-01-24T10:18:56.440Z,54.98
2019-01-24T10:21:27.254Z,57.25
2019-01-24T10:23:58.391Z,55.70
2019-01-24T10:26:29.558Z,55.88
2019-01-24T10:29:00.578Z,55.17
2019-01-24T10:31:31.668Z,55.65
2019-01-24T10:34:02.892Z,55.23
2019-01-24T10:36:33.883Z,55.38
2019-01-24T10:39:08.371Z,54.58
2019-01-24T10:41:39.248Z,55.10
2019-01-24T10:44:10.347Z,56.15
2019-01-24T10:46:41.780Z,55.35
2019-01-24T10:49:12.681Z,59.38
2019-01-24T10:51:43.387Z,58.75
2019-01-24T10:54:15.211Z,56.92
2019-01-24T10:56:45.952Z,57.45
2019-01-24T10:59:16.719Z,57.03
2019-01-24T11:01:48.608Z,57.53
2019-01-24T11:04:19.435Z,58.03
2019-01-24T11:06:50.631Z,57.15
2019-01-24T11:09:21.623Z,57.65
2019-01-24T11:11:52.379Z,58.00
2019-01-24T11:14:23.793Z,60.48
2019-01-24T11:16:54.553Z,60.43
2019-01-24T11:19:25.693Z,58.83
2019-01-24T11:21:56.519Z,58.48
2019-01-24T11:24:27.266Z,61.18
2019-01-24T11:26:59.129Z,59.23
2019-01-24T11:29:29.949Z,59.98
2019-01-24T11:32:00.992Z,61.18
2019-01-24T11:34:31.906Z,57.98
2019-01-24T11:37:02.652Z,55.92
2019-01-24T11:39:34.234Z,54.63
2019-01-24T11:42:05.263Z,56.02
2019-01-24T11:44:36.987Z,55.33
2019-01-24T11:47:08.162Z,55.38
2019-01-24T11:49:39.004Z,56.90
2019-01-24T11:52:09.839Z,56.53
2019-01-24T11:54:40.671Z,57.15
2019-01-24T11:57:11.842Z,57.17
2019-01-24T11:59:42.668Z,55.08
2019-01-24T12:02:13.434Z,57.75
2019-01-24T12:04:44.544Z,55.30
2019-01-24T12:07:15.715Z,57.00
2019-01-24T12:09:46.924Z,54.90
2019-01-24T12:12:17.704Z,55.80
2019-01-24T12:14:48.853Z,56.33
2019-01-24T12:17:19.958Z,56.63
2019-01-24T12:19:51.181Z,56.65
2019-01-24T12:22:21.920Z,58.90
2019-01-24T12:24:52.697Z,59.50
2019-01-24T12:27:23.827Z,58.90
2019-01-24T12:29:54.640Z,59.00
2019-01-24T12:32:25.364Z,58.17
2019-01-24T12:34:56.252Z,59.75
2019-01-24T12:37:27.344Z,58.73
2019-01-24T12:39:58.138Z,58.52
2019-01-24T12:42:29.010Z,58.80
2019-01-24T12:44:59.823Z,58.33
2019-01-24T12:47:30.904Z,58.65
2019-01-24T12:50:01.697Z,59.67
2019-01-24T12:52:32.451Z,59.23
2019-01-24T12:55:03.322Z,59.75
2019-01-24T12:57:34.374Z,59.75
2019-01-24T13:00:07.807Z,59.13
2019-01-24T13:02:38.676Z,59.93
2019-01-24T13:05:10.287Z,60.00
2019-01-24T13:07:41.028Z,61.28
2019-01-24T13:10:15.231Z,59.67
2019-01-24T13:12:46.537Z,59.93
2019-01-24T13:15:18.751Z,60.38
2019-01-24T13:17:50.640Z,59.50
2019-01-24T13:20:21.587Z,60.17
2019-01-24T13:22:52.656Z,59.97
2019-01-24T13:25:26.058Z,59.65
2019-01-24T13:27:57.144Z,59.20
2019-01-24T13:30:30.800Z,60.88
2019-01-24T13:33:02.393Z,59.95
2019-01-24T13:35:33.507Z,59.50
2019-01-24T13:38:05.378Z,59.80
2019-01-24T13:40:36.846Z,58.40
2019-01-24T13:43:08.094Z,59.23
2019-01-24T13:45:41.912Z,59.83
2019-01-24T13:48:12.984Z,60.00
2019-01-24T13:50:44.147Z,58.92
2019-01-24T13:53:15.935Z,57.88
2019-01-24T13:55:46.735Z,58.23
2019-01-24T13:58:17.795Z,58.28
2019-01-24T14:00:49.565Z,57.30
2019-01-24T14:03:47.947Z,58.42
2019-01-24T14:06:18.683Z,57.38
2019-01-24T14:08:49.651Z,56.50
2019-01-24T14:11:20.754Z,58.70
2019-01-24T14:13:51.530Z,58.87
2019-01-24T14:16:22.463Z,57.05
2019-01-24T14:18:53.843Z,58.38
2019-01-24T14:21:25.754Z,57.38
2019-01-24T14:23:57.569Z,56.75
2019-01-24T14:26:28.436Z,55.80
2019-01-24T14:28:59.563Z,57.60
2019-01-24T14:31:30.518Z,57.03
2019-01-24T14:34:01.449Z,57.88
2019-01-24T14:36:32.571Z,56.17
2019-01-24T14:39:05.191Z,60.20
2019-01-24T14:41:35.966Z,56.88
2019-01-24T14:44:06.798Z,57.33
2019-01-24T14:46:37.771Z,55.70
2019-01-24T14:49:08.669Z,55.78
2019-01-24T14:51:39.779Z,55.65
2019-01-24T14:54:22.399Z,56.23
2019-01-24T14:56:53.631Z,57.08
2019-01-24T14:59:24.518Z,56.03
2019-01-24T15:01:55.379Z,56.33
2019-01-24T15:04:26.144Z,56.28
2019-01-24T15:06:57.163Z,55.37
2019-01-24T15:09:28.471Z,55.78
2019-01-24T15:11:59.583Z,55.48
2019-01-24T15:14:30.303Z,56.92
2019-01-24T15:17:01.365Z,57.63
2019-01-24T15:19:32.147Z,65.42
2019-01-24T15:22:02.929Z,56.10
2019-01-24T15:24:33.707Z,54.53
2019-01-24T15:27:04.917Z,57.27
2019-01-24T15:29:35.704Z,57.13
2019-01-24T15:32:06.958Z,56.13
2019-01-24T15:34:37.696Z,56.83
2019-01-24T15:37:08.521Z,57.40
2019-01-24T15:39:39.699Z,55.50
2019-01-24T15:42:10.435Z,57.43
2019-01-24T15:44:41.276Z,57.30
2019-01-24T15:47:12.448Z,55.45
2019-01-24T15:49:43.384Z,57.88
2019-01-24T15:52:14.096Z,56.40
2019-01-24T15:54:45.209Z,56.48
2019-01-24T15:57:16.000Z,57.55
2019-01-24T15:59:46.859Z,56.28
2019-01-24T16:02:17.617Z,55.88
2019-01-24T16:04:48.362Z,56.83
2019-01-24T16:07:19.510Z,55.52
2019-01-24T16:09:50.610Z,56.40
2019-01-24T16:12:21.340Z,55.70
2019-01-24T16:14:52.230Z,56.88
2019-01-24T16:17:23.249Z,56.10
2019-01-24T16:19:54.070Z,55.25
2019-01-24T16:22:26.231Z,53.42
2019-01-24T16:24:57.040Z,55.95
2019-01-24T16:27:27.862Z,57.55
2019-01-24T16:29:58.678Z,56.50
2019-01-24T16:32:29.392Z,55.75
2019-01-24T16:35:00.540Z,55.75
2019-01-24T16:37:31.367Z,55.00
2019-01-24T16:40:02.104Z,56.90
2019-01-24T16:42:33.148Z,55.77
2019-01-24T16:45:05.040Z,55.30
2019-01-24T16:47:35.805Z,55.00
2019-01-24T16:50:08.268Z,54.77
2019-01-24T16:52:39.056Z,54.63
2019-01-24T16:55:11.847Z,55.23
2019-01-24T16:57:43.039Z,54.55
2019-01-24T17:00:43.828Z,54.27
2019-01-24T17:03:14.578Z,53.23
2019-01-24T17:05:45.479Z,53.78
2019-01-24T17:08:17.263Z,54.42
2019-01-24T17:10:48.106Z,54.05
2019-01-24T17:13:18.907Z,55.00
2019-01-24T17:15:50.243Z,53.28
2019-01-24T17:18:21.386Z,53.92
2019-01-24T17:20:52.452Z,55.12
2019-01-24T17:23:23.268Z,53.83
2019-01-24T17:25:54.070Z,54.30
2019-01-24T17:28:25.125Z,55.93
2019-01-24T17:30:55.851Z,54.58
2019-01-24T17:33:26.651Z,54.05
2019-01-24T17:35:57.451Z,54.38
2019-01-24T17:38:28.265Z,55.03
2019-01-24T17:40:58.988Z,53.58
2019-01-24T17:43:30.059Z,54.50
2019-01-24T17:46:00.906Z,52.65
2019-01-24T17:48:31.723Z,53.28
2019-01-24T17:51:02.577Z,54.13
2019-01-24T17:53:33.600Z,54.58
2019-01-24T17:56:04.969Z,53.40
2019-01-24T17:58:35.715Z,54.18
2019-01-24T18:01:06.988Z,53.87
2019-01-24T18:03:37.917Z,54.18
2019-01-24T18:06:08.802Z,55.10
2019-01-24T18:08:40.192Z,53.68
2019-01-24T18:11:11.470Z,53.57
2019-01-24T18:13:42.555Z,54.45
2019-01-24T18:16:13.685Z,53.95
2019-01-24T18:18:44.602Z,56.63
2019-01-24T18:21:15.547Z,55.03
2019-01-24T18:23:47.309Z,55.03
2019-01-24T18:26:18.026Z,54.95
2019-01-24T18:28:49.792Z,54.20
2019-01-24T18:31:20.891Z,54.18
2019-01-24T18:33:52.121Z,54.93
2019-01-24T18:36:23.387Z,54.05
2019-01-24T18:38:54.290Z,55.55
2019-01-24T18:41:25.443Z,54.67
2019-01-24T18:43:57.203Z,54.67
2019-01-24T18:46:28.111Z,55.73
2019-01-24T18:48:59.787Z,55.05
2019-01-24T18:51:31.114Z,54.75
2019-01-24T18:54:02.249Z,55.88
2019-01-24T18:56:33.315Z,55.50
2019-01-24T18:59:04.434Z,56.05
2019-01-24T19:01:35.262Z,55.12
2019-01-24T19:04:07.383Z,55.55
2019-01-24T19:06:38.275Z,56.03
2019-01-24T19:09:09.547Z,56.08
2019-01-24T19:11:40.430Z,55.45
2019-01-24T19:14:11.222Z,54.90
2019-01-24T19:16:42.013Z,54.73
2019-01-24T19:19:12.735Z,55.03
2019-01-24T19:21:43.677Z,55.30
2019-01-24T19:24:15.207Z,55.67
2019-01-24T19:26:47.331Z,56.15
2019-01-24T19:29:18.091Z,55.57
2019-01-24T19:31:49.187Z,56.27
2019-01-24T19:34:19.922Z,55.38
2019-01-24T19:36:51.647Z,54.13
2019-01-24T19:39:22.455Z,56.33
2019-01-24T19:41:53.275Z,55.63
2019-01-24T19:44:24.056Z,56.20
2019-01-24T19:46:54.966Z,56.20
2019-01-24T19:49:25.775Z,56.42
2019-01-24T19:51:56.868Z,56.20
2019-01-24T19:54:28.767Z,56.60
2019-01-24T19:57:00.575Z,57.08
2019-01-24T19:59:31.604Z,55.50
2019-01-24T20:02:02.427Z,55.43
2019-01-24T20:04:33.304Z,55.92
2019-01-24T20:07:04.231Z,55.60
2019-01-24T20:09:35.059Z,55.12
2019-01-24T20:12:06.282Z,58.28
2019-01-24T20:14:37.327Z,55.40
2019-01-24T20:17:08.808Z,56.15
2019-01-24T20:19:39.566Z,56.03
2019-01-24T20:22:10.765Z,57.20
2019-01-24T20:24:41.803Z,56.40
2019-01-24T20:27:12.653Z,55.43
2019-01-24T20:29:43.400Z,56.58
2019-01-24T20:32:15.240Z,57.50
2019-01-24T20:34:46.384Z,57.40
2019-01-24T20:37:17.506Z,57.67
2019-01-24T20:39:48.303Z,56.30
2019-01-24T20:42:19.055Z,58.45
2019-01-24T20:44:50.717Z,58.68
2019-01-24T20:47:21.496Z,58.40
2019-01-24T20:49:52.565Z,58.60
2019-01-24T20:52:23.704Z,58.28
2019-01-24T20:54:54.832Z,56.80
2019-01-24T20:57:25.616Z,59.58
2019-01-24T20:59:56.680Z,59.95
2019-01-24T21:02:27.528Z,59.63
2019-01-24T21:04:58.296Z,58.98
2019-01-24T21:07:29.151Z,58.70
2019-01-24T21:09:59.989Z,60.08
2019-01-24T21:12:31.064Z,57.70
2019-01-24T21:15:01.815Z,58.67
2019-01-24T21:17:32.666Z,58.43
2019-01-24T21:20:04.273Z,58.13
2019-01-24T21:22:36.097Z,58.17
2019-01-24T21:25:08.510Z,58.03
2019-01-24T21:27:39.426Z,58.40
2019-01-24T21:30:14.699Z,61.92
2019-01-24T21:32:46.126Z,58.30
2019-01-24T21:35:17.096Z,59.85
2019-01-24T21:37:48.327Z,59.58
2019-01-24T21:40:20.137Z,58.95
2019-01-24T21:42:51.140Z,58.73
2019-01-24T21:45:24.703Z,59.93
2019-01-24T21:47:55.551Z,58.60
2019-01-24T21:50:27.296Z,60.45
2019-01-24T21:52:58.343Z,62.23
2019-01-24T21:55:29.976Z,63.90
2019-01-24T21:58:01.305Z,63.80
2019-01-24T22:00:33.483Z,64.17
2019-01-24T22:03:04.911Z,61.53
2019-01-24T22:05:35.995Z,63.28
2019-01-24T22:08:07.354Z,61.05
2019-01-24T22:10:38.572Z,63.85
2019-01-24T22:13:09.531Z,63.02
2019-01-24T22:15:40.873Z,64.07
2019-01-24T22:18:11.763Z,63.25
2019-01-24T22:20:42.591Z,63.60
2019-01-24T22:23:13.335Z,64.17
2019-01-24T22:25:44.271Z,64.35
2019-01-24T22:28:15.119Z,64.42
2019-01-24T22:30:49.419Z,64.30
2019-01-24T22:33:20.595Z,62.60
2019-01-24T22:35:51.536Z,63.75
2019-01-24T22:38:22.629Z,64.80
2019-01-24T22:40:53.449Z,61.30
2019-01-24T22:43:24.448Z,61.88
2019-01-24T22:45:55.274Z,62.30
2019-01-24T22:48:26.102Z,63.48
2019-01-24T22:50:57.250Z,62.00
2019-01-24T22:53:28.115Z,62.05
2019-01-24T22:55:59.156Z,62.93
2019-01-24T22:58:29.883Z,60.33
2019-01-24T23:01:32.199Z,61.77
2019-01-24T23:04:21.714Z,62.03
2019-01-24T23:06:53.560Z,61.55
2019-01-24T23:09:24.348Z,62.33
2019-01-24T23:11:55.163Z,62.23
2019-01-24T23:14:26.322Z,61.45
2019-01-24T23:16:57.174Z,63.23
2019-01-24T23:19:27.996Z,64.20
2019-01-24T23:21:59.015Z,64.05
2019-01-24T23:24:29.763Z,64.97
2019-01-24T23:27:00.826Z,63.80
2019-01-24T23:29:31.655Z,63.52
2019-01-24T23:32:02.426Z,63.70
2019-01-24T23:34:33.242Z,64.30
2019-01-24T23:37:04.490Z,65.12
2019-01-24T23:39:35.280Z,63.13
2019-01-24T23:42:06.439Z,63.08
2019-01-24T23:44:37.299Z,65.25
2019-01-24T23:47:08.207Z,68.02
2019-01-24T23:49:38.984Z,64.53
2019-01-24T23:52:10.883Z,64.42
2019-01-24T23:54:41.851Z,64.20
2019-01-24T23:57:13.019Z,61.67
2019-01-24T23:59:43.759Z,63.63
